Time;durP1;ratioP1;P1;durP2;ratioP2;P2;SDS_P1;SDS_P2;PMS_P1;PMS_P2;Temp;Humidity;BMP_temperature;BMP_pressure;BME280_temperature;BME280_humidity;BME280_pressure;Samples;Min_cycle;Max_cycle;Signal;HPM_P1;HPM_P2
2024/02/27 00:02:20;;;;;;;17.05;10.15;;;;;;;5.47;100.00;100489.09;5162207;28;20225;-73
2024/02/27 00:04:50;;;;;;;22.77;10.40;;;;;;;5.41;100.00;100498.72;5183459;28;20025;-73
2024/02/27 00:07:23;;;;;;;18.65;10.55;;;;;;;5.53;100.00;100495.91;5190416;28;20368;-73
2024/02/27 00:09:54;;;;;;;19.98;10.95;;;;;;;5.52;100.00;100496.78;5187923;28;20111;-73
2024/02/27 00:12:25;;;;;;;21.27;12.00;;;;;;;5.43;100.00;100499.53;5182567;28;20529;-73
2024/02/27 00:14:56;;;;;;;20.88;11.88;;;;;;;5.42;100.00;100505.59;5184135;28;20051;-73
2024/02/27 00:17:26;;;;;;;22.95;11.73;;;;;;;5.35;100.00;100510.91;5172890;28;20210;-72
2024/02/27 00:19:56;;;;;;;21.98;12.23;;;;;;;5.38;100.00;100503.94;5182537;28;20025;-73
2024/02/27 00:22:27;;;;;;;20.88;12.45;;;;;;;5.32;100.00;100510.97;5186453;28;20025;-72
2024/02/27 00:24:57;;;;;;;21.30;12.07;;;;;;;5.40;100.00;100515.16;5195205;28;20411;-73
2024/02/27 00:27:27;;;;;;;22.13;12.50;;;;;;;5.30;100.00;100515.31;5177063;28;20472;-73
2024/02/27 00:29:58;;;;;;;22.73;12.80;;;;;;;5.36;100.00;100526.41;5184055;28;20021;-73
2024/02/27 00:32:28;;;;;;;24.35;13.07;;;;;;;5.31;100.00;100522.22;5189918;28;20028;-73
2024/02/27 00:34:58;;;;;;;21.60;12.63;;;;;;;5.25;100.00;100528.34;5179750;28;20029;-73
2024/02/27 00:37:28;;;;;;;27.50;13.65;;;;;;;5.25;100.00;100525.75;5183550;28;20017;-73
2024/02/27 00:39:59;;;;;;;22.77;13.30;;;;;;;5.20;100.00;100530.13;5182592;28;20021;-73
2024/02/27 00:42:29;;;;;;;23.30;12.93;;;;;;;5.14;100.00;100525.03;5184671;28;20675;-73
2024/02/27 00:45:00;;;;;;;24.63;13.70;;;;;;;5.13;100.00;100528.50;5177502;28;20028;-73
2024/02/27 00:47:31;;;;;;;24.65;13.35;;;;;;;5.10;100.00;100528.56;5178863;28;20029;-72
2024/02/27 00:50:01;;;;;;;26.17;13.90;;;;;;;5.06;100.00;100526.00;5184736;28;20020;-73
2024/02/27 00:52:31;;;;;;;21.98;12.98;;;;;;;5.10;100.00;100520.78;5191038;28;20026;-71
2024/02/27 00:55:05;;;;;;;24.73;13.35;;;;;;;5.09;100.00;100519.06;5189302;28;20025;-72
2024/02/27 00:57:36;;;;;;;25.58;13.27;;;;;;;5.05;100.00;100524.31;5185155;28;20029;-72
2024/02/27 01:00:12;;;;;;;23.10;12.88;;;;;;;4.97;100.00;100519.22;5195625;28;20087;-72
2024/02/27 01:02:42;;;;;;;22.92;13.30;;;;;;;4.96;100.00;100520.13;5184847;28;20025;-73
2024/02/27 01:05:13;;;;;;;24.90;13.38;;;;;;;4.98;100.00;100513.19;5173015;28;20056;-73
2024/02/27 01:07:44;;;;;;;27.15;13.80;;;;;;;4.97;100.00;100516.66;5179046;28;20045;-73
2024/02/27 01:10:14;;;;;;;26.05;13.60;;;;;;;4.99;100.00;100521.81;5175305;28;20029;-73
2024/02/27 01:12:45;;;;;;;24.10;13.52;;;;;;;4.84;100.00;100525.44;5185856;28;20044;-73
2024/02/27 01:15:15;;;;;;;24.75;13.65;;;;;;;4.87;100.00;100521.97;5184933;28;20273;-72
2024/02/27 01:17:46;;;;;;;26.02;13.18;;;;;;;4.80;100.00;100526.38;5185213;28;20032;-73
2024/02/27 01:20:16;;;;;;;24.20;13.52;;;;;;;4.94;100.00;100511.50;5183984;28;20025;-73
2024/02/27 01:22:47;;;;;;;22.75;13.00;;;;;;;4.86;100.00;100521.13;5186683;28;20102;-73
2024/02/27 01:25:17;;;;;;;26.77;13.32;;;;;;;4.76;100.00;100523.84;5200632;28;20522;-72
2024/02/27 01:27:47;;;;;;;23.55;12.90;;;;;;;4.82;100.00;100516.84;5181179;28;20040;-72
2024/02/27 01:30:18;;;;;;;23.50;12.90;;;;;;;4.78;100.00;100519.53;5180707;28;20506;-73
2024/02/27 01:32:48;;;;;;;24.15;12.57;;;;;;;4.83;100.00;100521.16;5180311;28;20475;-73
2024/02/27 01:35:19;;;;;;;22.25;12.77;;;;;;;4.81;100.00;100519.47;5182370;28;20072;-73
2024/02/27 01:37:49;;;;;;;23.23;12.98;;;;;;;4.73;100.00;100523.88;5185684;28;20112;-73
2024/02/27 01:40:19;;;;;;;22.52;12.93;;;;;;;4.73;100.00;100516.13;5190700;28;20514;-73
2024/02/27 01:42:50;;;;;;;23.30;12.77;;;;;;;4.84;100.00;100525.44;5186144;28;20534;-73
2024/02/27 01:45:23;;;;;;;20.65;12.05;;;;;;;4.76;100.00;100516.06;5185058;28;20745;-73
2024/02/27 01:47:53;;;;;;;24.60;13.65;;;;;;;4.77;100.00;100518.66;5187995;28;20108;-73
2024/02/27 01:50:24;;;;;;;21.77;12.73;;;;;;;4.79;100.00;100510.88;5185353;28;20243;-73
2024/02/27 01:52:57;;;;;;;22.90;13.23;;;;;;;4.71;100.00;100518.75;5178803;28;20029;-73
2024/02/27 01:55:28;;;;;;;23.38;12.45;;;;;;;4.67;100.00;100509.28;5182145;28;20028;-73
2024/02/27 01:57:58;;;;;;;23.40;12.80;;;;;;;4.64;100.00;100514.50;5186690;28;20036;-73
2024/02/27 02:00:29;;;;;;;23.02;12.98;;;;;;;4.65;100.00;100517.97;5181090;28;20543;-73
2024/02/27 02:03:01;;;;;;;21.00;12.40;;;;;;;4.65;100.00;100523.13;5176390;28;20406;-73
2024/02/27 02:05:32;;;;;;;23.33;12.35;;;;;;;4.74;100.00;100525.59;5185855;28;20044;-73
2024/02/27 02:08:03;;;;;;;24.20;13.55;;;;;;;4.66;100.00;100527.44;5184995;28;20025;-73
2024/02/27 02:10:34;;;;;;;24.98;12.50;;;;;;;4.73;100.00;100531.66;5177350;28;20492;-73
2024/02/27 02:13:04;;;;;;;24.45;12.23;;;;;;;4.74;100.00;100533.38;5184780;28;20399;-73
2024/02/27 02:15:35;;;;;;;26.13;13.23;;;;;;;4.86;100.00;100544.44;5185079;28;20025;-73
2024/02/27 02:18:06;;;;;;;23.60;12.23;;;;;;;4.85;100.00;100537.56;5183437;28;20030;-73
2024/02/27 02:20:36;;;;;;;21.08;12.02;;;;;;;4.78;100.00;100542.81;5185105;28;20018;-73
2024/02/27 02:23:07;;;;;;;22.45;12.07;;;;;;;4.71;100.00;100547.22;5189446;28;20035;-72
2024/02/27 02:25:37;;;;;;;24.45;12.70;;;;;;;4.59;100.00;100554.25;5185096;28;20021;-73
2024/02/27 02:28:08;;;;;;;23.27;12.65;;;;;;;4.56;100.00;100559.47;5188097;28;20059;-73
2024/02/27 02:30:38;;;;;;;23.90;12.63;;;;;;;4.56;100.00;100562.06;5193090;28;20022;-73
2024/02/27 02:33:11;;;;;;;21.27;12.13;;;;;;;4.56;100.00;100562.06;5189569;28;20037;-73
2024/02/27 02:35:45;;;;;;;23.48;12.75;;;;;;;4.50;100.00;100567.31;5190578;28;20061;-72
2024/02/27 02:38:15;;;;;;;23.83;12.52;;;;;;;4.57;100.00;100567.22;5201133;28;20037;-73
2024/02/27 02:40:45;;;;;;;22.10;12.00;;;;;;;4.43;100.00;100563.94;5187396;28;20032;-73
2024/02/27 02:43:16;;;;;;;24.85;12.38;;;;;;;4.45;100.00;100566.50;5206377;28;20367;-73
2024/02/27 02:45:46;;;;;;;22.52;12.30;;;;;;;4.50;100.00;100578.50;5190938;28;20060;-73
2024/02/27 02:48:16;;;;;;;22.85;11.90;;;;;;;4.37;100.00;100581.25;5187336;28;20029;-73
2024/02/27 02:50:47;;;;;;;26.27;12.52;;;;;;;4.41;100.00;100594.13;5190196;28;20029;-73
2024/02/27 02:53:17;;;;;;;25.25;11.93;;;;;;;4.45;100.00;100593.22;5189808;28;20029;-73
2024/02/27 02:55:47;;;;;;;20.77;11.00;;;;;;;4.40;100.00;100600.19;5188085;28;20087;-72
2024/02/27 02:58:18;;;;;;;22.15;11.45;;;;;;;4.37;100.00;100608.00;5188778;28;20029;-73
2024/02/27 03:00:48;;;;;;;22.20;11.80;;;;;;;4.38;100.00;100611.41;5183052;28;20025;-73
2024/02/27 03:03:19;;;;;;;24.55;11.68;;;;;;;4.24;100.00;100608.97;5187161;28;20626;-73
2024/02/27 03:05:49;;;;;;;21.17;10.98;;;;;;;4.30;100.00;100606.31;5188503;28;20439;-73
2024/02/27 03:08:19;;;;;;;26.00;12.05;;;;;;;4.31;100.00;100599.44;5189964;28;20532;-73
2024/02/27 03:10:50;;;;;;;22.88;12.30;;;;;;;4.34;100.00;100604.56;5186624;28;20029;-72
2024/02/27 03:13:20;;;;;;;29.33;11.55;;;;;;;4.21;100.00;100603.84;5186540;28;20530;-73
2024/02/27 03:15:51;;;;;;;22.50;11.48;;;;;;;4.27;100.00;100602.94;5201233;28;20076;-73
2024/02/27 03:18:21;;;;;;;24.83;12.80;;;;;;;4.27;100.00;100596.00;5197522;28;20025;-73
2024/02/27 03:20:52;;;;;;;22.98;12.15;;;;;;;4.09;100.00;100603.09;5187884;28;20349;-73
2024/02/27 03:23:22;;;;;;;22.48;11.65;;;;;;;4.04;100.00;100603.13;5189644;28;20121;-73
2024/02/27 03:25:53;;;;;;;24.13;12.43;;;;;;;4.00;100.00;100604.03;5199087;28;20459;-73
2024/02/27 03:28:23;;;;;;;23.98;12.13;;;;;;;4.01;100.00;100610.94;5191674;28;20112;-73
2024/02/27 03:30:53;;;;;;;23.75;12.30;;;;;;;4.02;100.00;100622.09;5197798;28;20112;-73
2024/02/27 03:33:23;;;;;;;25.92;12.88;;;;;;;3.87;100.00;100625.69;5188698;28;20041;-73
2024/02/27 03:35:54;;;;;;;25.35;11.82;;;;;;;3.94;100.00;100635.09;5195046;28;20034;-73
2024/02/27 03:38:24;;;;;;;24.45;12.45;;;;;;;3.80;100.00;100636.91;5197297;28;20414;-73
2024/02/27 03:40:54;;;;;;;23.75;12.23;;;;;;;3.78;100.00;100641.25;5198798;28;20093;-73
2024/02/27 03:43:25;;;;;;;21.73;11.60;;;;;;;3.93;100.00;100633.38;5186625;28;20095;-72
2024/02/27 03:45:55;;;;;;;25.83;12.73;;;;;;;3.83;100.00;100631.75;5184293;28;20080;-72
2024/02/27 03:48:25;;;;;;;24.15;12.85;;;;;;;3.91;100.00;100627.38;5190044;28;20025;-72
2024/02/27 03:50:56;;;;;;;26.35;12.65;;;;;;;3.86;100.00;100625.69;5190740;28;20499;-73
2024/02/27 03:53:30;;;;;;;24.13;12.48;;;;;;;3.79;100.00;100624.88;5198581;28;20029;-73
2024/02/27 03:56:01;;;;;;;26.35;12.82;;;;;;;3.80;100.00;100625.75;5189067;28;20025;-73
2024/02/27 03:58:34;;;;;;;25.27;12.55;;;;;;;3.83;100.00;100618.84;5184653;28;20045;-73
2024/02/27 04:01:05;;;;;;;26.65;13.80;;;;;;;3.82;100.00;100621.41;5186609;28;20021;-72
2024/02/27 04:03:35;;;;;;;26.35;13.30;;;;;;;3.87;100.00;100619.66;5190260;28;20075;-73
2024/02/27 04:06:06;;;;;;;25.02;12.98;;;;;;;3.86;100.00;100623.97;5189340;28;20022;-72
2024/02/27 04:08:36;;;;;;;26.17;12.82;;;;;;;3.84;100.00;100627.44;5190615;28;20419;-73
2024/02/27 04:11:07;;;;;;;26.48;13.10;;;;;;;3.84;100.00;100635.19;5191472;23;20654;-74
2024/02/27 04:13:38;;;;;;;27.83;13.98;;;;;;;3.76;100.00;100639.56;5139418;28;20179;-73
2024/02/27 04:16:09;;;;;;;29.25;13.55;;;;;;;3.75;100.00;100643.03;5164151;28;20129;-74
2024/02/27 04:18:39;;;;;;;26.00;13.18;;;;;;;3.82;100.00;100655.03;5148642;28;20436;-75
2024/02/27 04:21:09;;;;;;;25.85;13.13;;;;;;;3.90;100.00;100648.91;5145275;28;20444;-75
2024/02/27 04:23:40;;;;;;;28.98;14.13;;;;;;;3.84;100.00;100659.31;5138738;28;20037;-74
2024/02/27 04:26:10;;;;;;;27.83;14.30;;;;;;;3.75;100.00;100664.53;5145799;28;20143;-74
2024/02/27 04:28:40;;;;;;;33.28;14.45;;;;;;;3.80;100.00;100673.09;5151036;28;20026;-75
2024/02/27 04:31:11;;;;;;;32.03;15.85;;;;;;;3.77;100.00;100672.28;5145795;28;20125;-74
2024/02/27 04:33:41;;;;;;;30.02;14.98;;;;;;;3.81;100.00;100667.06;5149392;28;20076;-74
2024/02/27 04:36:12;;;;;;;29.98;14.52;;;;;;;3.82;100.00;100666.19;5148621;28;20041;-74
2024/02/27 04:38:43;;;;;;;32.35;15.38;;;;;;;3.80;100.00;100667.09;5148881;28;20691;-74
2024/02/27 04:41:13;;;;;;;35.63;15.77;;;;;;;3.72;100.00;100664.56;5147578;28;20038;-74
2024/02/27 04:43:43;;;;;;;32.20;14.73;;;;;;;3.70;100.00;100655.97;5150589;28;20022;-74
2024/02/27 04:46:13;;;;;;;31.25;15.27;;;;;;;3.68;100.00;100657.72;5146767;28;20073;-74
2024/02/27 04:48:44;;;;;;;31.70;15.15;;;;;;;3.84;100.00;100664.50;5150286;28;20040;-74
2024/02/27 04:51:14;;;;;;;31.95;14.93;;;;;;;3.71;100.00;100667.13;5150317;28;20503;-74
2024/02/27 04:53:44;;;;;;;30.42;14.63;;;;;;;3.74;100.00;100660.25;5150673;28;20034;-74
2024/02/27 04:56:15;;;;;;;35.95;16.42;;;;;;;3.72;100.00;100664.56;5163971;28;20073;-74
2024/02/27 04:58:45;;;;;;;32.97;15.35;;;;;;;3.65;100.00;100668.03;5149315;28;20025;-74
2024/02/27 05:01:16;;;;;;;34.25;16.50;;;;;;;3.62;100.00;100678.41;5149468;28;20037;-74
2024/02/27 05:03:46;;;;;;;33.10;15.35;;;;;;;3.71;100.00;100678.34;5148097;28;20407;-75
2024/02/27 05:06:16;;;;;;;33.17;15.57;;;;;;;3.72;100.00;100680.06;5147938;28;20038;-74
2024/02/27 05:08:46;;;;;;;32.55;15.95;;;;;;;3.75;100.00;100682.63;5150251;28;20033;-74
2024/02/27 05:11:18;;;;;;;34.63;16.25;;;;;;;3.71;100.00;100687.81;5147626;28;20037;-74
2024/02/27 05:13:48;;;;;;;34.80;15.95;;;;;;;3.76;100.00;100681.75;5150277;28;20060;-74
2024/02/27 05:16:18;;;;;;;41.47;17.05;;;;;;;3.77;100.00;100687.78;5144595;28;20027;-75
2024/02/27 05:18:49;;;;;;;34.17;16.20;;;;;;;3.82;100.00;100691.19;5148265;28;20026;-74
2024/02/27 05:21:20;;;;;;;34.10;16.60;;;;;;;3.84;100.00;100692.91;5145663;28;20053;-75
2024/02/27 05:23:50;;;;;;;35.17;16.10;;;;;;;3.79;100.00;100692.06;5147066;28;20058;-75
2024/02/27 05:26:21;;;;;;;38.55;17.08;;;;;;;3.71;100.00;100688.69;5144211;28;20440;-75
2024/02/27 05:28:51;;;;;;;36.17;16.95;;;;;;;3.85;100.00;100689.47;5143188;28;20022;-74
2024/02/27 05:31:26;;;;;;;37.40;17.08;;;;;;;3.83;100.00;100693.78;5145617;28;20319;-75
2024/02/27 05:33:57;;;;;;;;;;;;;;;3.88;100.00;100689.44;5152065;28;20070;-73
2024/02/27 05:36:28;;;;;;;36.42;16.45;;;;;;;3.90;100.00;100689.41;5146575;28;19914;-75
2024/02/27 05:38:58;;;;;;;35.63;16.45;;;;;;;3.85;100.00;100693.75;5149850;28;20046;-74
2024/02/27 05:41:29;;;;;;;39.42;17.10;;;;;;;3.72;100.00;100694.69;5147015;28;20100;-75
2024/02/27 05:43:59;;;;;;;43.35;18.52;;;;;;;3.69;100.00;100705.94;5135852;28;20023;-74
2024/02/27 05:46:30;;;;;;;39.30;17.23;;;;;;;3.83;100.00;100703.25;5164520;28;20339;-75
2024/02/27 05:49:00;;;;;;;38.75;17.55;;;;;;;3.82;100.00;100702.38;5148936;28;20062;-75
2024/02/27 05:51:31;;;;;;;39.25;18.25;;;;;;;3.85;100.00;100707.56;5145447;28;20034;-74
2024/02/27 05:54:01;;;;;;;44.17;19.08;;;;;;;3.90;100.00;100705.78;5155906;28;20039;-74
2024/02/27 05:56:31;;;;;;;43.28;18.90;;;;;;;3.89;100.00;100708.38;5150781;28;20032;-75
2024/02/27 05:59:01;;;;;;;45.40;18.08;;;;;;;3.96;100.00;100710.06;5150977;28;20033;-74
2024/02/27 06:01:32;;;;;;;39.53;17.17;;;;;;;3.92;100.00;100714.38;5153313;28;20026;-75
2024/02/27 06:04:03;;;;;;;38.28;17.73;;;;;;;3.94;100.00;100714.38;5155297;28;20072;-75
2024/02/27 06:06:33;;;;;;;39.50;17.30;;;;;;;3.95;100.00;100718.69;5155289;28;20030;-75
2024/02/27 06:09:03;;;;;;;38.90;18.02;;;;;;;3.93;100.00;100721.28;5148574;28;20030;-74
2024/02/27 06:11:34;;;;;;;45.00;18.20;;;;;;;3.99;100.00;100726.38;5145407;28;20018;-74
2024/02/27 06:14:05;;;;;;;44.13;18.48;;;;;;;3.93;100.00;100729.03;5152503;28;20080;-74
2024/02/27 06:16:36;;;;;;;44.60;19.35;;;;;;;3.99;100.00;100735.88;5152478;28;20022;-74
2024/02/27 06:19:07;;;;;;;41.63;18.55;;;;;;;4.00;100.00;100738.47;5153635;28;20029;-73
2024/02/27 06:24:27;;;;;;;45.03;18.88;;;;;;;3.93;100.00;100754.88;5159882;28;20031;-75
2024/02/27 06:26:57;;;;;;;43.63;19.33;;;;;;;3.99;100.00;100762.59;5145031;28;20030;-74
2024/02/27 06:29:28;;;;;;;43.22;18.55;;;;;;;4.00;100.00;100773.81;5131368;28;20419;-75
2024/02/27 06:31:58;;;;;;;42.20;16.98;;;;;;;3.92;100.00;100781.59;5147960;28;20116;-74
2024/02/27 06:34:29;;;;;;;42.65;18.17;;;;;;;4.06;100.00;100773.75;5151522;28;20022;-75
2024/02/27 06:36:59;;;;;;;40.13;17.15;;;;;;;4.03;100.00;100769.47;5154515;28;20483;-74
2024/02/27 06:39:30;;;;;;;37.75;17.27;;;;;;;4.26;100.00;100766.75;5146385;28;20034;-75
2024/02/27 06:42:00;;;;;;;39.92;17.58;;;;;;;4.32;100.00;100772.69;5146614;28;20033;-75
2024/02/27 06:44:30;;;;;;;42.75;18.35;;;;;;;4.34;100.00;100776.16;5145631;28;20057;-75
2024/02/27 06:47:01;;;;;;;36.58;16.92;;;;;;;4.27;100.00;100778.81;5148902;28;20201;-75
2024/02/27 06:49:31;;;;;;;39.58;17.70;;;;;;;4.27;100.00;100784.81;5147458;28;20399;-74
2024/02/27 06:52:02;;;;;;;38.78;17.25;;;;;;;4.30;100.00;100787.38;5144046;28;20618;-75
2024/02/27 06:54:32;;;;;;;41.65;19.05;;;;;;;4.30;100.00;100789.97;5145508;28;20057;-74
2024/02/27 06:57:03;;;;;;;34.80;16.17;;;;;;;4.27;100.00;100786.56;5143725;28;20134;-73
2024/02/27 06:59:33;;;;;;;36.88;17.13;;;;;;;4.30;100.00;100795.13;5142240;28;20117;-75
2024/02/27 07:02:05;;;;;;;36.60;16.52;;;;;;;4.40;100.00;100798.50;5152330;28;20085;-75
2024/02/27 07:04:35;;;;;;;36.15;15.68;;;;;;;4.41;100.00;100795.94;5147752;28;20391;-75
2024/02/27 07:07:05;;;;;;;35.13;16.45;;;;;;;4.27;100.00;100795.16;5140753;28;20030;-74
2024/02/27 07:09:36;;;;;;;35.10;16.40;;;;;;;4.30;100.00;100800.31;5159001;28;20113;-75
2024/02/27 07:12:07;;;;;;;37.45;16.70;;;;;;;4.42;100.00;100797.66;5148834;28;20030;-74
2024/02/27 07:14:41;;;;;;;38.75;16.10;;;;;;;4.34;100.00;100801.16;5150112;28;20052;-75
2024/02/27 07:17:12;;;;;;;35.15;15.02;;;;;;;4.44;100.00;100798.50;5148959;28;20034;-75
2024/02/27 07:19:46;;;;;;;35.85;15.30;;;;;;;4.42;100.00;100802.81;5147303;28;20022;-75
2024/02/27 07:22:16;;;;;;;36.47;17.00;;;;;;;4.41;100.00;100814.03;5148752;28;20029;-74
2024/02/27 07:24:47;;;;;;;35.95;15.35;;;;;;;4.41;100.00;100811.44;5150606;28;20448;-74
2024/02/27 07:27:18;;;;;;;30.95;14.93;;;;;;;4.46;100.00;100814.84;5148821;28;20022;-74
2024/02/27 07:29:49;;;;;;;38.92;16.10;;;;;;;4.34;100.00;100819.25;5149960;28;20080;-73
2024/02/27 07:32:19;;;;;;;38.08;16.55;;;;;;;4.53;100.00;100821.72;5148806;28;20116;-74
2024/02/27 07:34:50;;;;;;;35.60;15.95;;;;;;;4.54;100.00;100820.84;5146596;28;20022;-74
2024/02/27 07:37:20;;;;;;;35.28;15.55;;;;;;;4.57;100.00;100828.59;5143928;28;20330;-75
2024/02/27 07:39:51;;;;;;;34.80;14.93;;;;;;;4.64;100.00;100835.41;5139308;28;20527;-75
2024/02/27 07:42:21;;;;;;;34.55;15.60;;;;;;;4.55;100.00;100839.81;5158922;28;20505;-74
2024/02/27 07:44:51;;;;;;;33.80;15.25;;;;;;;4.53;100.00;100839.84;5149833;28;20030;-75
2024/02/27 07:47:22;;;;;;;40.22;14.95;;;;;;;4.70;100.00;100842.28;5149605;28;20034;-75
2024/02/27 07:49:52;;;;;;;37.67;15.57;;;;;;;4.64;100.00;100834.59;5147650;28;20452;-74
2024/02/27 07:52:23;;;;;;;33.63;15.55;;;;;;;4.72;100.00;100838.81;5148258;28;20125;-75
2024/02/27 07:54:53;;;;;;;35.80;14.95;;;;;;;4.77;100.00;100839.63;5149280;28;20049;-75
2024/02/27 07:57:24;;;;;;;40.03;15.90;;;;;;;4.74;100.00;100837.09;5149052;28;20595;-74
2024/02/27 07:59:55;;;;;;;38.38;16.63;;;;;;;4.76;100.00;100839.63;5147275;28;20037;-75
2024/02/27 08:02:25;;;;;;;33.05;15.18;;;;;;;4.89;100.00;100834.38;5149341;28;20037;-74
2024/02/27 08:04:56;;;;;;;36.90;15.77;;;;;;;4.86;100.00;100836.13;5149304;28;20472;-74
2024/02/27 08:07:26;;;;;;;33.20;15.27;;;;;;;4.82;100.00;100835.28;5163008;28;20121;-75
2024/02/27 08:09:56;;;;;;;36.55;15.20;;;;;;;5.03;100.00;100836.81;5147878;28;20550;-74
2024/02/27 08:12:27;;;;;;;36.50;16.02;;;;;;;5.01;100.00;100849.78;5151685;28;20034;-75
2024/02/27 08:14:57;;;;;;;35.92;15.30;;;;;;;5.03;100.00;100848.06;5151732;28;20468;-74
2024/02/27 08:17:27;;;;;;;35.30;15.20;;;;;;;4.91;100.00;100863.69;5149742;28;20050;-74
2024/02/27 08:19:58;;;;;;;31.45;14.50;;;;;;;5.13;100.00;100865.22;5146515;28;20022;-75
2024/02/27 08:22:28;;;;;;;36.90;15.73;;;;;;;5.03;100.00;100871.38;5169713;28;20022;-74
2024/02/27 08:24:58;;;;;;;30.45;14.13;;;;;;;5.19;100.00;100859.13;5146197;28;20340;-75
2024/02/27 08:27:29;;;;;;;31.60;14.13;;;;;;;5.29;100.00;100864.19;5162883;28;20034;-74
2024/02/27 08:29:59;;;;;;;32.15;14.57;;;;;;;5.17;100.00;100859.13;5156965;28;20054;-74
2024/02/27 08:32:31;;;;;;;31.58;14.00;;;;;;;5.01;100.00;100857.53;5145900;28;20058;-74
2024/02/27 08:35:01;;;;;;;30.83;14.23;;;;;;;4.88;100.00;100858.53;5148399;28;20064;-75
2024/02/27 08:37:32;;;;;;;29.02;14.10;;;;;;;5.14;100.00;100850.53;5145328;28;20034;-75
2024/02/27 08:40:02;;;;;;;32.58;14.02;;;;;;;5.28;100.00;100854.72;5147709;28;20022;-74
2024/02/27 08:42:35;;;;;;;32.28;14.70;;;;;;;5.39;100.00;100839.94;5151016;28;20140;-74
2024/02/27 08:45:07;;;;;;;31.90;13.82;;;;;;;5.38;100.00;100851.16;5145600;28;20053;-74
2024/02/27 08:47:37;;;;;;;29.48;13.38;;;;;;;5.42;100.00;100842.47;5152879;28;20026;-75
2024/02/27 08:50:08;;;;;;;31.35;14.20;;;;;;;5.40;100.00;100846.81;5136516;28;20444;-75
2024/02/27 08:52:38;;;;;;;28.75;13.60;;;;;;;5.30;100.00;100862.47;5148144;28;20083;-75
2024/02/27 08:55:09;;;;;;;28.67;13.65;;;;;;;5.33;100.00;100860.69;5149897;28;20076;-74
2024/02/27 08:57:39;;;;;;;30.75;13.68;;;;;;;5.46;100.00;100859.72;5148978;28;20056;-75
2024/02/27 09:00:14;;;;;;;27.60;13.35;;;;;;;5.47;100.00;100862.28;5148018;28;20038;-73
2024/02/27 09:02:45;;;;;;;29.80;13.85;;;;;;;5.54;100.00;100850.13;5145384;28;20034;-75
2024/02/27 09:05:15;;;;;;;24.90;12.88;;;;;;;5.59;100.00;100856.97;5144699;28;20432;-75
2024/02/27 09:07:45;;;;;;;28.08;12.93;;;;;;;5.61;100.00;100862.13;5148588;28;20089;-75
2024/02/27 09:10:17;;;;;;;29.83;13.65;;;;;;;5.56;100.00;100858.75;5147423;28;20018;-75
2024/02/27 09:12:47;;;;;;;30.52;13.70;;;;;;;5.49;100.00;100870.91;5154396;28;20026;-74
2024/02/27 09:15:18;;;;;;;28.42;13.20;;;;;;;5.54;100.00;100857.91;5156470;28;20499;-73
2024/02/27 09:17:48;;;;;;;29.40;13.43;;;;;;;5.55;100.00;100860.47;5162233;28;20033;-75
2024/02/27 09:20:19;;;;;;;27.27;13.38;;;;;;;5.47;100.00;100856.25;5148348;28;20022;-73
2024/02/27 09:22:49;;;;;;;30.45;13.50;;;;;;;5.53;100.00;100864.81;5146202;28;20046;-75
2024/02/27 09:25:19;;;;;;;27.77;12.98;;;;;;;5.48;100.00;100864.00;5144159;28;20136;-73
2024/02/27 09:27:49;;;;;;;32.75;13.52;;;;;;;5.59;100.00;100863.88;5142567;28;20022;-74
2024/02/27 09:30:20;;;;;;;27.92;13.25;;;;;;;5.71;100.00;100855.97;5153402;28;20049;-74
2024/02/27 09:32:52;;;;;;;25.77;12.48;;;;;;;5.68;100.00;100856.88;5145173;28;20026;-74
2024/02/27 09:35:22;;;;;;;26.65;12.55;;;;;;;5.74;100.00;100851.59;5134144;28;20057;-74
2024/02/27 09:37:52;;;;;;;27.25;12.70;;;;;;;5.80;100.00;100855.91;5145397;28;20074;-75
2024/02/27 09:40:23;;;;;;;26.73;12.35;;;;;;;5.73;100.00;100857.66;5148528;28;20058;-73
2024/02/27 09:42:59;;;;;;;23.67;11.45;;;;;;;5.71;100.00;100864.59;5143010;28;20022;-74
2024/02/27 09:45:30;;;;;;;25.05;11.18;;;;;;;5.78;100.00;100862.81;5147974;28;20033;-75
2024/02/27 09:48:02;;;;;;;25.13;11.30;;;;;;;5.76;100.00;100868.00;5156625;28;20022;-75
2024/02/27 09:50:34;;;;;;;24.63;12.18;;;;;;;5.92;100.00;100869.56;5147040;28;20041;-74
2024/02/27 09:53:06;;;;;;;23.65;11.52;;;;;;;6.01;99.23;100872.06;5149432;28;20029;-73
2024/02/27 09:55:37;;;;;;;23.95;12.10;;;;;;;5.99;99.26;100878.13;5154110;28;20030;-74
2024/02/27 09:58:09;;;;;;;22.75;11.32;;;;;;;6.11;99.46;100878.00;5144712;28;20369;-74
2024/02/27 10:00:39;;;;;;;24.52;11.43;;;;;;;6.20;99.05;100880.44;5141374;28;20025;-73
2024/02/27 10:03:11;;;;;;;21.25;10.88;;;;;;;6.11;98.89;100883.19;5137066;28;20399;-75
2024/02/27 10:05:42;;;;;;;20.13;11.05;;;;;;;6.30;98.78;100888.13;5138846;28;20042;-74
2024/02/27 10:08:22;;;;;;;23.13;10.10;;;;;;;6.30;98.75;100882.06;5146021;28;20038;-74
2024/02/27 10:10:53;;;;;;;23.15;9.98;;;;;;;6.27;97.70;100887.28;5179047;22;20156;-74
2024/02/27 10:13:24;;;;;;;20.83;9.95;;;;;;;6.13;96.60;100887.47;5164022;28;21540;-75
2024/02/27 10:15:54;;;;;;;20.38;10.35;;;;;;;6.31;97.68;100888.97;5156689;28;20511;-75
2024/02/27 10:18:24;;;;;;;20.55;10.13;;;;;;;6.39;95.89;100897.53;5167229;28;20026;-73
2024/02/27 10:20:55;;;;;;;22.17;10.13;;;;;;;6.20;97.44;100893.41;5163429;28;20117;-74
2024/02/27 10:23:26;;;;;;;19.38;10.30;;;;;;;6.41;97.14;100891.41;5146542;28;20112;-74
2024/02/27 10:26:09;;;;;;;20.63;10.07;;;;;;;6.58;98.44;100886.00;5147895;28;20061;-74
2024/02/27 10:28:39;;;;;;;21.83;10.30;;;;;;;6.67;97.04;100885.84;5145343;28;20579;-75
2024/02/27 10:31:11;;;;;;;18.95;10.05;;;;;;;6.79;95.49;100878.72;5147293;28;20114;-74
2024/02/27 10:33:42;;;;;;;18.05;9.27;;;;;;;6.62;94.04;100879.88;5146740;28;20038;-74
2024/02/27 10:36:12;;;;;;;18.48;9.93;;;;;;;6.65;95.14;100877.22;5155365;28;20034;-74
2024/02/27 10:38:44;;;;;;;17.48;9.20;;;;;;;6.75;93.93;100877.06;5150150;28;20080;-74
2024/02/27 10:41:15;;;;;;;20.23;9.60;;;;;;;6.73;94.76;100871.03;5140397;28;20058;-74
2024/02/27 10:43:45;;;;;;;20.92;9.02;;;;;;;6.59;95.43;100877.31;5154178;28;20058;-74
2024/02/27 10:46:16;;;;;;;17.67;8.90;;;;;;;6.70;94.29;100871.09;5160290;28;20069;-74
2024/02/27 10:48:49;;;;;;;21.13;9.75;;;;;;;6.60;95.07;100873.84;5160217;28;20672;-74
2024/02/27 10:51:20;;;;;;;20.23;9.32;;;;;;;6.45;95.12;100879.25;5145283;28;20034;-74
2024/02/27 10:53:53;;;;;;;19.15;9.70;;;;;;;6.64;93.70;100875.50;5146420;28;20391;-75
2024/02/27 10:56:24;;;;;;;17.45;9.00;;;;;;;6.70;94.22;100875.41;5158458;28;20534;-74
2024/02/27 10:58:54;;;;;;;18.35;8.75;;;;;;;6.74;94.14;100875.34;5148874;28;20033;-74
2024/02/27 11:01:29;;;;;;;18.05;8.07;;;;;;;6.96;93.08;100886.25;5150398;28;20022;-75
2024/02/27 11:04:03;;;;;;;16.90;8.38;;;;;;;6.86;92.47;100876.88;5159432;28;20053;-74
2024/02/27 11:06:36;;;;;;;20.45;9.32;;;;;;;6.98;94.00;100876.69;5144089;28;20117;-74
2024/02/27 11:09:12;;;;;;;20.33;9.25;;;;;;;6.91;93.47;100875.94;5147735;28;20072;-74
2024/02/27 11:11:44;;;;;;;;;;;;;;;6.98;92.44;100874.09;5150387;28;20124;-74
2024/02/27 11:14:18;;;;;;;14.38;7.68;;;;;;;6.91;93.58;100869.91;5148852;28;20000;-74
2024/02/27 11:16:53;;;;;;;15.23;8.52;;;;;;;6.93;93.15;100868.13;5146097;28;20030;-74
2024/02/27 11:19:26;;;;;;;16.23;7.70;;;;;;;6.92;92.40;100866.41;5165344;28;20065;-74
2024/02/27 11:21:58;;;;;;;17.80;8.00;;;;;;;6.82;92.81;100865.72;5146762;28;20038;-74
2024/02/27 11:24:28;;;;;;;14.85;7.30;;;;;;;7.03;92.42;100875.75;5146333;28;20026;-74
2024/02/27 11:26:59;;;;;;;13.10;6.95;;;;;;;7.16;92.50;100872.06;5151861;28;20478;-75
2024/02/27 11:29:30;;;;;;;14.38;7.18;;;;;;;7.27;92.51;100870.13;5146736;28;20061;-74
2024/02/27 11:32:01;;;;;;;13.23;6.85;;;;;;;7.33;90.43;100886.47;5159008;28;20027;-74